createdAt,value
2018-10-21T00:00:40.491Z,95.98
2018-10-21T00:01:40.782Z,95.79
2018-10-21T00:02:41.108Z,95.67
2018-10-21T00:03:41.463Z,95.75
2018-10-21T00:04:41.967Z,95.77
2018-10-21T00:05:42.267Z,95.83
2018-10-21T00:06:42.619Z,96.38
2018-10-21T00:07:42.926Z,96.28
2018-10-21T00:08:43.204Z,95.87
2018-10-21T00:09:43.681Z,95.99
2018-10-21T00:10:44.080Z,95.74
2018-10-21T00:11:44.624Z,95.81
2018-10-21T00:12:45.178Z,95.77
2018-10-21T00:13:45.677Z,95.54
2018-10-21T00:14:46.074Z,95.55
2018-10-21T00:15:46.676Z,96.03
2018-10-21T00:16:46.959Z,95.79
2018-10-21T00:17:47.246Z,96.18
2018-10-21T00:18:47.544Z,95.92
2018-10-21T00:19:48.055Z,96.21
2018-10-21T00:20:48.903Z,96.14
2018-10-21T00:21:49.133Z,96.27
2018-10-21T00:22:49.951Z,96.42
2018-10-21T00:23:50.524Z,96.08
2018-10-21T00:24:51.215Z,96.16
2018-10-21T00:25:51.954Z,95.92
2018-10-21T00:26:52.313Z,96.37
2018-10-21T00:27:52.849Z,96.68
2018-10-21T00:28:53.390Z,96.74
2018-10-21T00:29:53.630Z,96.37
2018-10-21T00:30:54.173Z,96.45
2018-10-21T00:31:54.601Z,96.33
2018-10-21T00:32:54.969Z,95.83
2018-10-21T00:33:54.383Z,96.41
2018-10-21T00:34:56.050Z,96.76
2018-10-21T00:35:56.265Z,96.51
2018-10-21T00:36:56.575Z,96.37
2018-10-21T00:37:56.947Z,96.58
2018-10-21T00:38:57.654Z,96.71
2018-10-21T00:39:56.625Z,96.11
2018-10-21T00:40:03.738Z,96.84
2018-10-21T00:41:05.238Z,96.92
2018-10-21T00:42:05.637Z,96.61
2018-10-21T00:43:06.079Z,96.17
2018-10-21T00:44:06.489Z,96.08
2018-10-21T00:45:07.413Z,96.43
2018-10-21T00:46:06.615Z,96.64
2018-10-21T00:47:07.986Z,95.89
2018-10-21T00:48:08.097Z,95.70
2018-10-21T00:53:42.092Z,95.24
2018-10-21T00:54:42.178Z,95.57
2018-10-21T00:55:42.601Z,95.69
2018-10-21T00:56:42.856Z,95.22
2018-10-21T00:57:43.770Z,95.32
2018-10-21T00:58:45.097Z,94.80
2018-10-21T00:59:44.514Z,94.32
2018-10-21T01:00:44.985Z,94.55
2018-10-21T01:01:45.450Z,94.71
2018-10-21T01:02:45.999Z,95.05
2018-10-21T01:03:46.474Z,95.45
2018-10-21T01:04:46.855Z,95.30
2018-10-21T01:05:47.203Z,95.84
2018-10-21T01:06:47.558Z,94.79
2018-10-21T01:07:48.032Z,94.43
2018-10-21T01:08:48.521Z,94.99
2018-10-21T01:09:48.844Z,94.70
2018-10-21T01:10:49.264Z,94.75
2018-10-21T01:11:49.743Z,95.52
2018-10-21T01:12:50.228Z,96.18
2018-10-21T01:13:50.586Z,95.81
2018-10-21T01:14:50.929Z,96.07
2018-10-21T01:15:51.223Z,95.94
2018-10-21T01:16:51.786Z,95.98
2018-10-21T01:17:52.106Z,96.93
2018-10-21T01:18:52.498Z,96.50
2018-10-21T01:19:52.857Z,95.91
2018-10-21T01:20:53.631Z,96.61
2018-10-21T01:21:52.897Z,96.39
2018-10-21T01:22:54.227Z,95.88
2018-10-21T01:23:54.549Z,95.76
2018-10-21T01:24:54.922Z,96.40
2018-10-21T01:25:03.553Z,96.28
2018-10-21T01:26:04.946Z,96.27
2018-10-21T01:27:05.371Z,96.09
2018-10-21T01:28:04.654Z,96.48
2018-10-21T01:29:06.154Z,96.23
2018-10-21T01:30:05.420Z,96.32
2018-10-21T01:31:06.803Z,96.44
2018-10-21T01:32:07.082Z,95.77
2018-10-21T01:33:07.478Z,95.78
2018-10-21T01:34:06.785Z,95.56
2018-10-21T01:35:08.449Z,95.30
2018-10-21T01:36:08.970Z,95.29
2018-10-21T01:37:08.250Z,95.61
2018-10-21T01:38:08.594Z,95.88
2018-10-21T01:39:08.924Z,96.26
2018-10-21T01:40:09.221Z,95.72
2018-10-21T01:41:10.620Z,95.87
2018-10-21T01:42:11.024Z,95.92
2018-10-21T01:43:11.443Z,96.24
2018-10-21T01:44:12.776Z,96.13
2018-10-21T01:45:12.309Z,96.18
2018-10-21T01:46:11.553Z,96.26
2018-10-21T01:47:13.097Z,96.46
2018-10-21T01:48:13.510Z,96.15
2018-10-21T01:49:13.815Z,96.05
2018-10-21T01:50:14.089Z,96.35
2018-10-21T01:51:14.611Z,96.59
2018-10-21T01:52:13.853Z,96.90
2018-10-21T01:53:15.312Z,96.93
2018-10-21T01:54:15.579Z,97.01
2018-10-21T01:55:15.897Z,96.98
2018-10-21T01:56:16.267Z,96.51
2018-10-21T01:57:16.628Z,96.10
2018-10-21T01:58:15.874Z,96.01
2018-10-21T01:59:17.454Z,95.97
2018-10-21T02:00:17.772Z,96.04
2018-10-21T02:01:18.125Z,96.08
2018-10-21T02:02:18.559Z,96.23
2018-10-21T02:03:19.032Z,96.46
2018-10-21T02:04:18.185Z,96.65
2018-10-21T02:05:19.761Z,96.45
2018-10-21T02:06:20.591Z,97.09
2018-10-21T02:07:20.905Z,96.43
2018-10-21T02:08:21.303Z,96.51
2018-10-21T02:09:22.049Z,96.87
2018-10-21T02:10:22.387Z,96.41
2018-10-21T02:11:22.798Z,97.10
2018-10-21T02:12:23.130Z,97.29
2018-10-21T02:13:23.510Z,97.14
2018-10-21T02:14:23.904Z,97.55
2018-10-21T02:15:24.202Z,97.38
2018-10-21T02:16:24.603Z,97.03
2018-10-21T02:17:25.078Z,97.27
2018-10-21T02:18:25.835Z,97.01
2018-10-21T02:18:34.843Z,96.92
2018-10-21T02:19:34.093Z,96.85
2018-10-21T02:20:35.412Z,97.28
2018-10-21T02:21:35.791Z,97.35
2018-10-21T02:22:36.270Z,96.96
2018-10-21T02:23:36.664Z,96.83
2018-10-21T02:24:36.964Z,96.59
2018-10-21T02:25:37.383Z,96.82
2018-10-21T02:26:37.756Z,96.42
2018-10-21T02:27:37.034Z,96.51
2018-10-21T02:28:38.940Z,96.28
2018-10-21T02:29:39.241Z,96.02
2018-10-21T02:30:39.897Z,95.92
2018-10-21T02:31:40.266Z,95.84
2018-10-21T02:32:40.751Z,96.17
2018-10-21T02:33:41.293Z,96.51
2018-10-21T02:34:40.536Z,96.79
2018-10-21T02:35:41.871Z,96.29
2018-10-21T02:36:42.220Z,96.22
2018-10-21T02:37:42.633Z,96.53
2018-10-21T02:38:42.972Z,96.31
2018-10-21T02:39:43.296Z,96.16
2018-10-21T02:40:43.625Z,96.32
2018-10-21T02:41:44.026Z,96.57
2018-10-21T02:42:44.411Z,96.52
2018-10-21T02:43:44.795Z,96.24
2018-10-21T02:44:45.250Z,96.51
2018-10-21T02:45:45.544Z,96.65
2018-10-21T02:46:45.876Z,96.56
2018-10-21T02:47:46.426Z,97.27
2018-10-21T02:48:46.805Z,97.10
2018-10-21T02:49:47.273Z,97.16
2018-10-21T02:50:47.253Z,97.37
2018-10-21T02:51:47.728Z,97.02
2018-10-21T02:52:48.139Z,97.46
2018-10-21T02:53:48.756Z,97.37
2018-10-21T02:54:49.077Z,97.31
2018-10-21T02:55:49.971Z,97.51
2018-10-21T02:56:49.359Z,97.38
2018-10-21T02:57:50.705Z,97.67
2018-10-21T02:58:51.055Z,97.72
2018-10-21T02:59:51.366Z,97.37
2018-10-21T03:00:51.935Z,97.56
2018-10-21T03:01:52.495Z,97.45
2018-10-21T03:02:52.789Z,97.54
2018-10-21T03:03:53.161Z,97.05
2018-10-21T03:04:53.586Z,96.71
2018-10-21T03:05:54.002Z,96.67
2018-10-21T03:06:02.648Z,96.89
2018-10-21T03:07:04.067Z,96.98
2018-10-21T03:08:04.400Z,97.30
2018-10-21T03:09:04.842Z,97.65
2018-10-21T03:10:03.992Z,97.09
2018-10-21T03:11:06.313Z,97.37
2018-10-21T03:12:05.608Z,96.93
2018-10-21T03:13:05.907Z,97.11
2018-10-21T03:14:06.506Z,96.97
2018-10-21T03:15:06.874Z,96.92
2018-10-21T03:16:06.262Z,96.89
2018-10-21T03:17:07.755Z,96.77
2018-10-21T03:18:08.099Z,96.41
2018-10-21T03:19:07.361Z,96.50
2018-10-21T03:20:08.720Z,97.16
2018-10-21T03:21:09.342Z,97.23
2018-10-21T03:22:08.494Z,96.62
2018-10-21T03:23:09.879Z,96.72
2018-10-21T03:24:10.179Z,96.89
2018-10-21T03:25:10.704Z,96.63
2018-10-21T03:26:11.104Z,96.44
2018-10-21T03:27:11.843Z,97.10
2018-10-21T03:28:11.097Z,97.04
2018-10-21T03:29:12.407Z,97.29
2018-10-21T03:30:12.729Z,97.36
2018-10-21T03:31:13.092Z,96.59
2018-10-21T03:32:13.393Z,96.43
2018-10-21T03:33:13.847Z,96.41
2018-10-21T03:34:13.396Z,96.55
2018-10-21T03:35:14.726Z,96.54
2018-10-21T03:36:15.174Z,96.34
2018-10-21T03:37:15.422Z,96.67
2018-10-21T03:38:15.710Z,96.61
2018-10-21T03:39:16.333Z,96.37
2018-10-21T03:40:16.765Z,96.15
2018-10-21T03:41:16.285Z,96.60
2018-10-21T03:42:18.606Z,96.47
2018-10-21T03:43:17.999Z,96.75
2018-10-21T03:44:18.294Z,96.52
2018-10-21T03:45:18.549Z,96.22
2018-10-21T03:46:18.954Z,96.50
2018-10-21T03:47:19.155Z,96.77
2018-10-21T03:48:19.443Z,96.94
2018-10-21T03:49:19.842Z,96.65
2018-10-21T03:50:19.170Z,96.80
2018-10-21T03:51:20.663Z,96.95
2018-10-21T03:52:21.109Z,97.48
2018-10-21T03:53:21.832Z,97.82
2018-10-21T03:54:22.341Z,98.15
2018-10-21T03:55:22.654Z,97.79
2018-10-21T03:56:22.966Z,97.92
2018-10-21T03:57:23.313Z,97.50
2018-10-21T03:57:32.000Z,97.75
2018-10-21T03:58:33.282Z,97.75
2018-10-21T03:59:33.564Z,97.35
2018-10-21T04:00:33.983Z,97.42
2018-10-21T04:01:34.427Z,97.46
2018-10-21T04:02:34.807Z,97.70
2018-10-21T04:03:35.163Z,98.02
2018-10-21T04:04:35.436Z,97.76
2018-10-21T04:05:36.040Z,97.37
2018-10-21T04:06:36.466Z,97.62
2018-10-21T04:07:36.752Z,97.44
2018-10-21T04:08:37.079Z,97.58
2018-10-21T04:09:37.374Z,97.36
2018-10-21T04:10:37.798Z,97.47
2018-10-21T04:11:38.143Z,97.32
2018-10-21T04:12:39.505Z,97.34
2018-10-21T04:13:39.097Z,97.61
2018-10-21T04:14:40.340Z,97.77
2018-10-21T04:15:39.592Z,97.65
2018-10-21T04:16:40.012Z,98.05
2018-10-21T04:17:40.323Z,97.88
2018-10-21T04:18:40.739Z,97.72
2018-10-21T04:19:41.062Z,97.65
2018-10-21T04:20:40.444Z,97.09
2018-10-21T04:21:41.989Z,97.02
2018-10-21T04:22:42.327Z,97.19
2018-10-21T04:23:43.140Z,97.72
2018-10-21T04:24:43.448Z,97.30
2018-10-21T04:25:44.139Z,97.73
2018-10-21T04:26:44.595Z,98.08
2018-10-21T04:27:45.380Z,98.04
2018-10-21T04:28:45.680Z,97.66
2018-10-21T04:29:46.222Z,97.82
2018-10-21T04:30:47.025Z,97.92
2018-10-21T04:31:47.794Z,98.58
2018-10-21T04:32:48.237Z,99.39
2018-10-21T04:33:48.502Z,98.74
2018-10-21T04:34:48.960Z,98.61
2018-10-21T04:35:49.573Z,99.21
2018-10-21T04:36:49.955Z,98.85
2018-10-21T04:37:50.427Z,98.81
2018-10-21T04:38:50.805Z,98.43
2018-10-21T04:39:51.173Z,98.25
2018-10-21T04:40:51.697Z,98.26
2018-10-21T04:41:52.244Z,98.22
2018-10-21T04:42:52.784Z,98.62
2018-10-21T04:43:02.873Z,98.74
2018-10-21T04:44:04.265Z,98.73
2018-10-21T04:45:04.577Z,98.82
2018-10-21T04:46:05.172Z,98.79
2018-10-21T04:47:04.713Z,98.91
2018-10-21T04:48:05.127Z,98.71
2018-10-21T04:49:06.589Z,98.48
2018-10-21T04:50:06.954Z,98.47
2018-10-21T04:51:08.462Z,98.36
2018-10-21T04:52:07.149Z,98.59
2018-10-21T04:53:07.812Z,98.56
2018-10-21T04:54:09.096Z,98.35
2018-10-21T04:55:09.537Z,98.59
2018-10-21T04:56:10.274Z,98.61
2018-10-21T04:57:09.478Z,98.61
2018-10-21T04:58:10.841Z,98.98
2018-10-21T04:59:10.163Z,98.95
2018-10-21T05:00:11.602Z,98.14
2018-10-21T05:01:11.946Z,98.28
2018-10-21T05:02:12.282Z,97.98
2018-10-21T05:03:12.585Z,98.13
2018-10-21T05:04:12.948Z,98.81
2018-10-21T05:05:12.203Z,98.56
2018-10-21T05:06:13.478Z,99.11
2018-10-21T05:07:13.779Z,98.91
2018-10-21T05:08:14.143Z,99.18
2018-10-21T05:09:14.396Z,99.89
2018-10-21T05:10:14.876Z,99.94
2018-10-21T05:11:14.139Z,99.41
2018-10-21T05:12:15.555Z,99.32
2018-10-21T05:13:15.848Z,99.91
2018-10-21T05:14:16.497Z,99.93
2018-10-21T05:15:17.250Z,99.49
2018-10-21T05:16:16.817Z,99.28
2018-10-21T05:17:16.958Z,98.96
2018-10-21T05:18:18.579Z,99.11
2018-10-21T05:19:19.019Z,99.06
2018-10-21T05:20:19.338Z,98.65
2018-10-21T05:21:19.773Z,98.04
2018-10-21T05:22:20.165Z,97.86
2018-10-21T05:23:20.719Z,98.18
2018-10-21T05:24:21.311Z,98.63
2018-10-21T05:25:21.752Z,98.56
2018-10-21T05:26:22.152Z,99.08
2018-10-21T05:27:22.427Z,99.45
2018-10-21T05:28:22.657Z,99.64
2018-10-21T05:29:22.950Z,99.77
2018-10-21T05:30:23.374Z,99.76
2018-10-21T05:31:23.736Z,100.04
2018-10-21T05:32:24.097Z,100.46
2018-10-21T05:33:23.729Z,100.24
2018-10-21T05:34:25.173Z,99.62
2018-10-21T05:35:25.489Z,99.63
2018-10-21T05:36:25.804Z,99.66
2018-10-21T05:36:34.457Z,99.33
2018-10-21T05:37:35.707Z,99.30
2018-10-21T05:38:36.068Z,99.07
2018-10-21T05:39:36.408Z,99.08
2018-10-21T05:40:36.832Z,99.15
2018-10-21T05:41:36.184Z,99.61
2018-10-21T05:42:37.569Z,99.74
2018-10-21T05:43:38.161Z,99.62
2018-10-21T05:44:38.521Z,99.38
2018-10-21T05:45:38.832Z,99.17
2018-10-21T05:46:39.183Z,99.35
2018-10-21T05:47:38.515Z,98.86
2018-10-21T05:48:40.017Z,98.96
2018-10-21T05:49:40.439Z,98.80
2018-10-21T05:50:40.852Z,98.68
2018-10-21T05:51:41.200Z,98.71
2018-10-21T05:52:41.846Z,98.81
2018-10-21T05:53:42.138Z,98.13
2018-10-21T05:54:42.574Z,98.66
2018-10-21T05:55:42.902Z,98.99
2018-10-21T05:56:43.285Z,99.39
2018-10-21T05:57:43.837Z,99.11
2018-10-21T05:58:43.088Z,98.94
2018-10-21T05:59:44.501Z,99.01
2018-10-21T06:00:44.850Z,98.91
2018-10-21T06:01:45.159Z,98.37
2018-10-21T06:02:45.097Z,98.06
2018-10-21T06:03:45.599Z,98.24
2018-10-21T06:04:47.289Z,98.20
2018-10-21T06:05:47.606Z,98.14
2018-10-21T06:06:48.012Z,97.97
2018-10-21T06:07:48.588Z,98.21
2018-10-21T06:08:49.145Z,97.80
2018-10-21T06:09:49.425Z,97.61
2018-10-21T06:10:48.771Z,98.15
2018-10-21T06:11:50.235Z,98.36
2018-10-21T06:12:50.583Z,98.05
2018-10-21T06:13:51.354Z,98.20
2018-10-21T06:14:51.748Z,97.83
2018-10-21T06:15:52.131Z,97.91
2018-10-21T06:16:51.501Z,97.88
2018-10-21T06:17:52.768Z,97.76
2018-10-21T06:18:53.108Z,98.11
2018-10-21T06:19:53.620Z,98.09
2018-10-21T06:20:53.969Z,98.12
2018-10-21T06:21:54.448Z,98.49
2018-10-21T06:22:53.708Z,97.75
2018-10-21T06:23:55.053Z,97.66
2018-10-21T06:24:55.464Z,98.36
2018-10-21T06:25:55.836Z,98.58
2018-10-21T06:26:56.232Z,98.58
2018-10-21T06:27:56.589Z,98.33
2018-10-21T06:28:05.243Z,98.97
2018-10-21T06:29:05.652Z,99.00
2018-10-21T06:30:06.023Z,99.17
2018-10-21T06:31:06.336Z,99.20
2018-10-21T06:32:06.717Z,99.29
2018-10-21T06:33:06.998Z,99.46
2018-10-21T06:34:06.301Z,99.38
2018-10-21T06:35:07.736Z,99.19
2018-10-21T06:36:08.065Z,99.67
2018-10-21T06:37:08.867Z,99.40
2018-10-21T06:38:09.189Z,99.21
2018-10-21T06:39:09.501Z,99.08
2018-10-21T06:40:08.796Z,98.87
2018-10-21T06:41:10.123Z,98.51
2018-10-21T06:42:10.418Z,98.79
2018-10-21T06:43:10.682Z,99.16
2018-10-21T06:44:10.947Z,99.13
2018-10-21T06:45:11.600Z,99.70
2018-10-21T06:46:10.836Z,99.40
2018-10-21T06:47:12.104Z,99.01
2018-10-21T06:48:12.436Z,99.30
2018-10-21T06:49:13.223Z,99.64
2018-10-21T06:50:12.562Z,98.99
2018-10-21T06:51:13.922Z,99.48
2018-10-21T06:52:13.175Z,99.32
2018-10-21T06:53:14.487Z,99.06
2018-10-21T06:54:14.775Z,99.24
2018-10-21T06:55:15.108Z,99.60
2018-10-21T06:56:15.536Z,99.44
2018-10-21T06:57:15.908Z,99.41
2018-10-21T06:58:15.176Z,99.29
2018-10-21T06:59:16.476Z,98.82
2018-10-21T07:00:16.824Z,99.39
2018-10-21T07:01:17.234Z,99.56
2018-10-21T07:02:17.557Z,99.59
2018-10-21T07:03:18.526Z,99.09
2018-10-21T07:04:19.054Z,98.90
2018-10-21T07:05:18.360Z,98.59
2018-10-21T07:06:19.763Z,98.86
2018-10-21T07:07:20.049Z,99.32
2018-10-21T07:08:20.346Z,99.59
2018-10-21T07:09:20.673Z,99.30
2018-10-21T07:10:21.039Z,99.49
2018-10-21T07:11:21.829Z,99.82
2018-10-21T07:12:22.112Z,99.65
2018-10-21T07:13:22.429Z,100.22
2018-10-21T07:14:22.901Z,100.42
2018-10-21T07:15:23.264Z,100.63
2018-10-21T07:16:23.034Z,100.68
2018-10-21T07:17:23.601Z,100.77
2018-10-21T07:17:32.223Z,100.60
2018-10-21T07:18:32.673Z,100.60
2018-10-21T07:19:33.015Z,100.90
2018-10-21T07:20:33.357Z,100.57
2018-10-21T07:21:33.678Z,100.66
2018-10-21T07:22:34.662Z,99.82
2018-10-21T07:23:35.058Z,99.80
2018-10-21T07:24:35.433Z,99.33
2018-10-21T07:25:35.806Z,99.20
2018-10-21T07:26:36.617Z,98.89
2018-10-21T07:27:37.346Z,99.64
2018-10-21T07:28:37.967Z,99.81
2018-10-21T07:29:37.524Z,99.21
2018-10-21T07:30:38.915Z,99.18
2018-10-21T07:31:39.211Z,99.40
2018-10-21T07:32:39.464Z,99.14
2018-10-21T07:33:39.773Z,99.63
2018-10-21T07:34:40.297Z,99.94
2018-10-21T07:35:40.529Z,99.53
2018-10-21T07:36:40.911Z,99.84
2018-10-21T07:37:41.255Z,100.24
2018-10-21T07:38:41.670Z,100.46
2018-10-21T07:39:42.604Z,100.42
2018-10-21T07:40:42.979Z,100.04
2018-10-21T07:41:43.319Z,100.00
2018-10-21T07:42:43.507Z,99.77
2018-10-21T07:43:43.801Z,99.31
2018-10-21T07:44:44.933Z,98.74
2018-10-21T07:45:44.293Z,98.91
2018-10-21T07:46:44.598Z,99.00
2018-10-21T07:47:44.886Z,98.68
2018-10-21T07:48:45.260Z,99.16
2018-10-21T07:49:45.577Z,99.93
2018-10-21T07:50:46.212Z,100.08
2018-10-21T07:51:46.553Z,99.39
2018-10-21T07:52:46.997Z,99.65
2018-10-21T07:53:47.266Z,99.54
2018-10-21T07:54:47.571Z,98.96
2018-10-21T07:55:48.280Z,98.78
2018-10-21T07:56:47.483Z,99.13
2018-10-21T07:57:48.791Z,98.87
2018-10-21T07:58:49.147Z,99.37
2018-10-21T07:59:49.558Z,99.61
2018-10-21T08:00:48.929Z,99.46
2018-10-21T08:01:49.251Z,99.36
2018-10-21T08:02:50.776Z,98.89
2018-10-21T08:03:51.246Z,98.99
2018-10-21T08:03:59.913Z,98.67
2018-10-21T08:05:01.299Z,98.69
2018-10-21T08:06:00.680Z,98.59
2018-10-21T08:07:02.042Z,98.85
2018-10-21T08:08:02.369Z,99.00
2018-10-21T08:09:02.817Z,98.56
2018-10-21T08:10:03.181Z,98.61
2018-10-21T08:11:02.654Z,98.06
2018-10-21T08:12:03.927Z,98.88
2018-10-21T08:13:04.613Z,98.37
2018-10-21T08:14:05.009Z,98.91
2018-10-21T08:15:05.927Z,98.42
2018-10-21T08:16:05.624Z,98.44
2018-10-21T08:17:05.776Z,98.79
2018-10-21T08:18:07.085Z,99.02
2018-10-21T08:19:07.470Z,98.34
2018-10-21T08:20:07.872Z,98.17
2018-10-21T08:21:08.337Z,98.67
2018-10-21T08:22:08.625Z,98.76
2018-10-21T08:23:07.939Z,98.05
2018-10-21T08:24:09.292Z,98.56
2018-10-21T08:25:09.627Z,98.66
2018-10-21T08:26:10.073Z,98.34
2018-10-21T08:27:10.939Z,97.83
2018-10-21T08:28:10.231Z,98.31
2018-10-21T08:29:10.552Z,98.72
2018-10-21T08:30:11.939Z,99.08
2018-10-21T08:31:12.229Z,98.07
2018-10-21T08:32:12.845Z,98.40
2018-10-21T08:33:13.125Z,98.50
2018-10-21T08:34:13.454Z,98.61
2018-10-21T08:35:12.816Z,98.47
2018-10-21T08:36:14.115Z,98.11
2018-10-21T08:37:14.584Z,98.48
2018-10-21T08:38:14.906Z,98.27
2018-10-21T08:39:15.184Z,98.29
2018-10-21T08:40:15.697Z,98.05
2018-10-21T08:41:14.992Z,97.97
2018-10-21T08:42:17.346Z,97.88
2018-10-21T08:43:16.735Z,97.73
2018-10-21T08:44:17.317Z,97.80
2018-10-21T08:45:17.883Z,97.37
2018-10-21T08:46:18.214Z,97.49
2018-10-21T08:47:17.690Z,98.13
2018-10-21T08:48:19.053Z,97.67
2018-10-21T08:49:19.511Z,98.16
2018-10-21T08:50:19.134Z,98.10
2018-10-21T08:51:20.605Z,98.02
2018-10-21T08:52:20.967Z,97.78
2018-10-21T08:53:21.308Z,97.82
2018-10-21T08:54:21.793Z,97.13
2018-10-21T08:54:30.473Z,96.93
2018-10-21T08:55:31.764Z,96.94
2018-10-21T08:56:32.027Z,96.66
2018-10-21T08:57:32.407Z,96.71
2018-10-21T08:58:32.748Z,96.98
2018-10-21T08:59:33.025Z,96.92
2018-10-21T09:00:33.367Z,96.90
2018-10-21T09:01:33.648Z,96.48
2018-10-21T09:02:34.330Z,96.70
2018-10-21T09:03:34.676Z,96.85
2018-10-21T09:04:34.963Z,97.13
2018-10-21T09:05:35.345Z,97.17
2018-10-21T09:06:35.735Z,97.20
2018-10-21T09:07:36.100Z,97.28
2018-10-21T09:08:36.572Z,97.41
2018-10-21T09:09:37.015Z,97.30
2018-10-21T09:10:37.474Z,97.16
2018-10-21T09:11:36.843Z,97.62
2018-10-21T09:12:38.279Z,97.16
2018-10-21T09:13:38.648Z,96.56
2018-10-21T09:14:39.274Z,97.40
2018-10-21T09:15:39.495Z,97.69
2018-10-21T09:16:39.921Z,97.56
2018-10-21T09:17:39.130Z,97.61
2018-10-21T09:18:41.031Z,97.46
2018-10-21T09:19:41.829Z,97.93
2018-10-21T09:20:42.735Z,97.71
2018-10-21T09:21:42.126Z,97.33
2018-10-21T09:22:43.219Z,96.85
2018-10-21T09:23:43.709Z,96.77
2018-10-21T09:24:43.134Z,96.85
2018-10-21T09:25:44.425Z,96.45
2018-10-21T09:26:44.782Z,96.31
2018-10-21T09:27:45.073Z,96.19
2018-10-21T09:28:45.622Z,95.65
2018-10-21T09:29:44.490Z,95.39
2018-10-21T09:30:45.864Z,95.58
2018-10-21T09:31:46.217Z,95.56
2018-10-21T09:32:46.618Z,95.45
2018-10-21T09:33:46.933Z,95.07
2018-10-21T09:34:47.371Z,95.10
2018-10-21T09:35:47.841Z,94.75
2018-10-21T09:36:47.105Z,94.73
2018-10-21T09:37:48.409Z,94.53
2018-10-21T09:38:48.893Z,94.28
2018-10-21T09:39:49.200Z,94.55
2018-10-21T09:40:49.538Z,94.67
2018-10-21T09:41:49.932Z,95.08
2018-10-21T09:42:50.343Z,95.18
2018-10-21T09:42:59.028Z,94.88
2018-10-21T09:43:59.337Z,94.95
2018-10-21T09:45:00.744Z,95.24
2018-10-21T09:46:00.040Z,95.12
2018-10-21T09:47:01.294Z,95.12
2018-10-21T09:48:01.570Z,94.87
2018-10-21T09:49:01.944Z,95.37
2018-10-21T09:50:01.425Z,95.62
2018-10-21T09:51:01.728Z,95.33
2018-10-21T09:52:03.176Z,94.89
2018-10-21T09:53:02.599Z,95.35
2018-10-21T09:54:04.005Z,94.97
2018-10-21T09:55:04.751Z,94.86
2018-10-21T09:56:06.537Z,94.63
2018-10-21T09:57:04.515Z,94.38
2018-10-21T09:58:05.868Z,94.15
2018-10-21T09:59:05.099Z,94.01
2018-10-21T10:00:06.508Z,93.72
2018-10-21T10:01:07.322Z,93.48
2018-10-21T10:02:06.577Z,93.30
2018-10-21T10:03:07.878Z,92.71
2018-10-21T10:04:08.268Z,92.35
2018-10-21T10:05:07.653Z,92.66
2018-10-21T10:06:08.129Z,91.64
2018-10-21T10:07:09.802Z,92.01
2018-10-21T10:08:09.142Z,91.67
2018-10-21T10:09:10.496Z,91.51
2018-10-21T10:10:09.981Z,90.82
2018-10-21T10:11:10.434Z,90.50
2018-10-21T10:12:11.819Z,90.15
2018-10-21T10:13:12.052Z,90.17
2018-10-21T10:14:11.324Z,89.94
2018-10-21T10:15:12.658Z,89.57
2018-10-21T10:16:13.138Z,89.70
2018-10-21T10:17:12.364Z,89.31
2018-10-21T10:18:13.699Z,89.21
2018-10-21T10:19:14.275Z,89.14
2018-10-21T10:20:13.647Z,89.01
2018-10-21T10:21:15.251Z,89.03
2018-10-21T10:22:15.720Z,88.18
2018-10-21T10:23:15.008Z,87.75
2018-10-21T10:24:15.406Z,87.06
2018-10-21T10:25:16.714Z,86.58
2018-10-21T10:26:16.507Z,85.94
2018-10-21T10:27:17.884Z,85.85
2018-10-21T10:28:18.674Z,85.59
2018-10-21T10:29:18.085Z,84.52
2018-10-21T10:30:19.781Z,84.52
2018-10-21T10:31:19.344Z,84.13
2018-10-21T10:32:19.560Z,83.85
2018-10-21T10:33:20.880Z,83.59
2018-10-21T10:34:21.364Z,83.35
2018-10-21T10:35:21.723Z,83.52
2018-10-21T10:36:22.277Z,83.39
2018-10-21T10:37:22.528Z,83.54
2018-10-21T10:38:23.260Z,83.44
2018-10-21T10:39:23.821Z,83.77
2018-10-21T10:40:24.477Z,83.68
2018-10-21T10:41:25.154Z,83.81
2018-10-21T10:42:25.484Z,83.99
2018-10-21T10:43:26.151Z,83.52
2018-10-21T10:44:26.543Z,83.03
2018-10-21T10:45:26.930Z,83.17
2018-10-21T10:46:27.449Z,83.05
2018-10-21T10:46:36.201Z,82.88
2018-10-21T10:47:37.443Z,82.85
2018-10-21T10:48:37.836Z,82.20
2018-10-21T10:49:38.291Z,82.28
2018-10-21T10:50:38.677Z,81.79
2018-10-21T10:51:39.072Z,81.79
2018-10-21T10:52:39.415Z,82.04
2018-10-21T10:53:39.787Z,81.52
2018-10-21T10:54:40.345Z,81.86
2018-10-21T10:55:40.683Z,81.53
2018-10-21T10:56:41.004Z,81.46
2018-10-21T10:57:41.362Z,81.49
2018-10-21T10:58:42.244Z,81.43
2018-10-21T10:59:42.695Z,81.05
2018-10-21T11:00:41.855Z,81.17
2018-10-21T11:01:43.315Z,81.21
2018-10-21T11:02:43.737Z,80.81
2018-10-21T11:03:44.100Z,80.99
2018-10-21T11:04:44.569Z,80.60
2018-10-21T11:05:45.322Z,80.34
2018-10-21T11:06:45.989Z,80.62
2018-10-21T11:07:46.588Z,80.99
2018-10-21T11:08:47.259Z,80.84
2018-10-21T11:09:48.091Z,80.25
2018-10-21T11:10:48.549Z,80.58
2018-10-21T11:11:49.101Z,79.83
2018-10-21T11:12:49.583Z,79.76
2018-10-21T11:13:50.253Z,79.62
2018-10-21T11:14:50.695Z,79.62
2018-10-21T11:15:51.201Z,79.73
2018-10-21T11:16:51.649Z,80.00
2018-10-21T11:17:52.064Z,80.08
2018-10-21T11:18:52.521Z,79.97
2018-10-21T11:19:52.901Z,80.11
2018-10-21T11:20:53.762Z,79.49
2018-10-21T11:21:54.394Z,80.40
2018-10-21T11:22:53.958Z,79.80
2018-10-21T11:23:54.539Z,79.85
2018-10-21T11:24:55.951Z,79.50
2018-10-21T11:25:55.308Z,80.04
2018-10-21T11:26:56.774Z,79.08
2018-10-21T11:27:57.263Z,79.21
2018-10-21T11:28:57.881Z,79.34
2018-10-21T11:29:58.740Z,78.85
2018-10-21T11:30:59.072Z,79.34
2018-10-21T11:31:59.389Z,78.48
2018-10-21T11:32:59.815Z,79.30
2018-10-21T11:34:00.270Z,80.21
2018-10-21T11:34:09.048Z,79.87
2018-10-21T11:35:08.371Z,79.78
2018-10-21T11:36:09.852Z,79.35
2018-10-21T11:37:10.214Z,79.89
2018-10-21T11:38:09.790Z,81.00
2018-10-21T11:39:11.511Z,79.00
2018-10-21T11:40:11.965Z,80.98
2018-10-21T11:41:11.250Z,80.61
2018-10-21T11:42:12.772Z,80.63
2018-10-21T11:43:13.465Z,81.22
2018-10-21T11:44:13.663Z,81.44
2018-10-21T11:45:13.889Z,80.71
2018-10-21T11:46:15.612Z,79.88
2018-10-21T11:47:14.895Z,80.31
2018-10-21T11:48:16.403Z,81.11
2018-10-21T11:49:16.950Z,80.72
2018-10-21T11:50:16.245Z,80.86
2018-10-21T11:51:17.756Z,80.43
2018-10-21T11:52:18.326Z,79.73
2018-10-21T11:53:17.556Z,78.43
2018-10-21T11:54:18.884Z,78.88
2018-10-21T11:55:19.361Z,79.05
2018-10-21T11:56:18.780Z,78.03
2018-10-21T11:57:20.302Z,78.13
2018-10-21T11:58:20.675Z,78.62
2018-10-21T11:59:20.996Z,78.51
2018-10-21T12:00:21.447Z,77.86
2018-10-21T12:01:21.770Z,78.37
2018-10-21T12:02:22.241Z,78.05
2018-10-21T12:03:22.652Z,78.98
2018-10-21T12:04:22.976Z,77.23
2018-10-21T12:05:23.280Z,78.18
2018-10-21T12:06:23.699Z,77.43
2018-10-21T12:07:24.369Z,75.38
2018-10-21T12:08:24.641Z,75.97
2018-10-21T12:09:24.998Z,75.69
2018-10-21T12:10:25.615Z,75.30
2018-10-21T12:11:26.181Z,77.08
2018-10-21T12:12:26.827Z,74.88
2018-10-21T12:13:27.381Z,75.15
2018-10-21T12:14:28.200Z,77.04
2018-10-21T12:15:28.583Z,76.02
2018-10-21T12:16:28.093Z,74.59
2018-10-21T12:17:29.376Z,74.81
2018-10-21T12:18:29.706Z,75.00
2018-10-21T12:19:30.047Z,75.11
2018-10-21T12:20:30.447Z,75.54
2018-10-21T12:21:30.904Z,75.17
2018-10-21T12:22:31.305Z,75.21
2018-10-21T12:23:30.736Z,75.71
2018-10-21T12:24:30.935Z,75.18
2018-10-21T12:25:32.347Z,74.62
2018-10-21T12:26:31.860Z,75.08
2018-10-21T12:27:34.293Z,75.96
2018-10-21T12:28:33.632Z,75.97
2018-10-21T12:28:42.266Z,74.82
2018-10-21T12:29:43.476Z,74.91
2018-10-21T12:30:43.790Z,76.21
2018-10-21T12:31:44.107Z,74.96
2018-10-21T12:32:44.504Z,75.96
2018-10-21T12:33:44.922Z,76.48
2018-10-21T12:34:44.144Z,76.99
2018-10-21T12:35:45.328Z,76.64
2018-10-21T12:36:45.731Z,77.87
2018-10-21T12:37:46.013Z,76.87
2018-10-21T12:38:46.443Z,77.68
2018-10-21T12:39:46.746Z,76.78
2018-10-21T12:40:47.138Z,76.98
2018-10-21T12:41:46.622Z,76.21
2018-10-21T12:42:47.927Z,77.11
2018-10-21T12:43:48.345Z,77.26
2018-10-21T12:44:48.619Z,76.37
2018-10-21T12:45:49.059Z,76.41
2018-10-21T12:46:50.032Z,75.30
2018-10-21T12:47:50.335Z,76.26
2018-10-21T12:48:50.679Z,77.30
2018-10-21T12:49:50.972Z,74.77